WMT1KS LIMC-LEBL
Flight info
| Callsign | WMT1KS |
|---|---|
| Flight time | N/A |
| Altitude | 29000 |
| Route | DOGUB6TXNEDED6I/35R NEDED DCT GEKBA DCT VAMTU DCT KOLON DCT GANGU DCT PADKO DCT DIVKO DCT NILDU DCT BISBA |
| Aircraft | A321/M-SDE1E2E3FGIJ1J4RWXY/LB1 |
Departure
| Time | 2026-05-05 15:55 |
|---|---|
| Airport | Milan Malpensa International Airport (LIMC) |
Arrival
| Time | N/A |
|---|---|
| Airport | Josep Tarradellas Barcelona-El Prat Airport (LEBL) |
| Time | Latitude | Longitude | Altitude | Speed | Heading |
|---|---|---|---|---|---|
| 2026-05-05 15:18 | 45.62378 | 8.71656 | 751 ft | 0 kts | 349° |
| 2026-05-05 15:36 | 45.62361 | 8.71661 | 749 ft | 4 kts | 343° |
| 2026-05-05 15:36 | 45.62335 | 8.71673 | 751 ft | 4 kts | 343° |
| 2026-05-05 15:36 | 45.62315 | 8.71680 | 751 ft | 4 kts | 20° |
| 2026-05-05 15:36 | 45.62302 | 8.71657 | 749 ft | 4 kts | 77° |
| 2026-05-05 15:37 | 45.62299 | 8.71632 | 749 ft | 0 kts | 79° |
| 2026-05-05 15:41 | 45.62300 | 8.71640 | 753 ft | 3 kts | 79° |
| 2026-05-05 15:41 | 45.62304 | 8.71670 | 751 ft | 2 kts | 79° |
| 2026-05-05 15:41 | 45.62308 | 8.71701 | 751 ft | 5 kts | 79° |
| 2026-05-05 15:41 | 45.62314 | 8.71743 | 749 ft | 4 kts | 79° |
| 2026-05-05 15:42 | 45.62322 | 8.71802 | 749 ft | 8 kts | 79° |
| 2026-05-05 15:42 | 45.62335 | 8.71897 | 753 ft | 11 kts | 79° |
| 2026-05-05 15:42 | 45.62350 | 8.72007 | 753 ft | 10 kts | 79° |
| 2026-05-05 15:42 | 45.62353 | 8.72092 | 752 ft | 8 kts | 118° |
| 2026-05-05 15:43 | 45.62280 | 8.72133 | 750 ft | 16 kts | 169° |
| 2026-05-05 15:43 | 45.62168 | 8.72164 | 749 ft | 16 kts | 169° |
| 2026-05-05 15:43 | 45.62066 | 8.72192 | 749 ft | 15 kts | 169° |
| 2026-05-05 15:43 | 45.61959 | 8.72222 | 750 ft | 15 kts | 169° |
| 2026-05-05 15:44 | 45.61868 | 8.72247 | 751 ft | 12 kts | 169° |
| 2026-05-05 15:44 | 45.61784 | 8.72270 | 751 ft | 14 kts | 169° |
| 2026-05-05 15:44 | 45.61671 | 8.72301 | 751 ft | 18 kts | 168° |
| 2026-05-05 15:44 | 45.61535 | 8.72339 | 751 ft | 19 kts | 169° |
| 2026-05-05 15:45 | 45.61417 | 8.72360 | 753 ft | 14 kts | 197° |
| 2026-05-05 15:45 | 45.61380 | 8.72243 | 752 ft | 13 kts | 260° |
| 2026-05-05 15:45 | 45.61313 | 8.72200 | 749 ft | 14 kts | 169° |
| 2026-05-05 15:45 | 45.61199 | 8.72231 | 752 ft | 18 kts | 169° |
| 2026-05-05 15:46 | 45.61076 | 8.72265 | 749 ft | 19 kts | 169° |
| 2026-05-05 15:46 | 45.60950 | 8.72300 | 753 ft | 18 kts | 169° |
| 2026-05-05 15:46 | 45.60830 | 8.72333 | 752 ft | 18 kts | 169° |
| 2026-05-05 15:46 | 45.60706 | 8.72368 | 749 ft | 19 kts | 165° |
| 2026-05-05 15:47 | 45.60637 | 8.72508 | 751 ft | 19 kts | 96° |
| 2026-05-05 15:47 | 45.60626 | 8.72647 | 751 ft | 22 kts | 96° |
| 2026-05-05 15:47 | 45.60607 | 8.72912 | 750 ft | 18 kts | 96° |
| 2026-05-05 15:47 | 45.60595 | 8.73077 | 749 ft | 15 kts | 96° |
| 2026-05-05 15:48 | 45.60601 | 8.73216 | 749 ft | 14 kts | 65° |
| 2026-05-05 15:48 | 45.60682 | 8.73297 | 752 ft | 15 kts | 22° |
| 2026-05-05 15:48 | 45.60771 | 8.73349 | 750 ft | 14 kts | 22° |
| 2026-05-05 15:48 | 45.60870 | 8.73402 | 750 ft | 15 kts | 13° |
| 2026-05-05 15:49 | 45.60967 | 8.73388 | 752 ft | 14 kts | 349° |
| 2026-05-05 15:49 | 45.61061 | 8.73362 | 750 ft | 14 kts | 349° |
| 2026-05-05 15:49 | 45.61156 | 8.73335 | 752 ft | 13 kts | 349° |
| 2026-05-05 15:49 | 45.61223 | 8.73317 | 753 ft | 0 kts | 349° |
| 2026-05-05 15:52 | 45.61250 | 8.73309 | 751 ft | 10 kts | 349° |
| 2026-05-05 15:52 | 45.61342 | 8.73284 | 752 ft | 15 kts | 349° |
| 2026-05-05 15:52 | 45.61445 | 8.73255 | 753 ft | 17 kts | 349° |
| 2026-05-05 15:52 | 45.61570 | 8.73221 | 749 ft | 18 kts | 349° |
| 2026-05-05 15:53 | 45.61621 | 8.73281 | 752 ft | 9 kts | 86° |
| 2026-05-05 15:53 | 45.61630 | 8.73405 | 753 ft | 14 kts | 95° |
| 2026-05-05 15:53 | 45.61597 | 8.73526 | 750 ft | 13 kts | 117° |
| 2026-05-05 15:53 | 45.61593 | 8.73687 | 744 ft | 19 kts | 81° |
| 2026-05-05 15:54 | 45.61622 | 8.73744 | 744 ft | 2 kts | 346° |
| 2026-05-05 15:54 | 45.61694 | 8.73717 | 744 ft | 32 kts | 348° |
| 2026-05-05 15:54 | 45.62161 | 8.73588 | 746 ft | 102 kts | 349° |
| 2026-05-05 15:54 | 45.63060 | 8.73338 | 745 ft | 159 kts | 349° |
| 2026-05-05 15:55 | 45.64187 | 8.73025 | 1295 ft | 164 kts | 349° |
| 2026-05-05 15:55 | 45.65323 | 8.72737 | 1994 ft | 171 kts | 351° |
| 2026-05-05 15:55 | 45.66591 | 8.72637 | 2206 ft | 196 kts | 7° |
| 2026-05-05 15:55 | 45.68032 | 8.72743 | 2477 ft | 219 kts | 2° |
| 2026-05-05 15:56 | 45.69590 | 8.72737 | 2968 ft | 232 kts | 0° |
| 2026-05-05 15:56 | 45.71211 | 8.72672 | 3799 ft | 235 kts | 354° |
| 2026-05-05 15:56 | 45.72706 | 8.71746 | 4506 ft | 241 kts | 314° |
| 2026-05-05 15:56 | 45.73494 | 8.69673 | 5224 ft | 241 kts | 275° |
| 2026-05-05 15:57 | 45.73376 | 8.67304 | 6020 ft | 240 kts | 254° |
| 2026-05-05 15:57 | 45.72894 | 8.65010 | 6888 ft | 242 kts | 249° |
| 2026-05-05 15:57 | 45.72334 | 8.62731 | 7821 ft | 243 kts | 250° |
| 2026-05-05 15:57 | 45.71744 | 8.60455 | 8753 ft | 245 kts | 242° |
| 2026-05-05 15:58 | 45.70791 | 8.58360 | 9388 ft | 262 kts | 234° |
| 2026-05-05 15:58 | 45.69723 | 8.56142 | 9981 ft | 277 kts | 236° |
| 2026-05-05 15:58 | 45.68597 | 8.53811 | 10448 ft | 296 kts | 230° |
| 2026-05-05 15:58 | 45.67002 | 8.51805 | 10688 ft | 318 kts | 211° |
| 2026-05-05 15:59 | 45.64977 | 8.50497 | 11207 ft | 328 kts | 203° |
| 2026-05-05 15:59 | 45.62855 | 8.49270 | 12045 ft | 328 kts | 204° |
| 2026-05-05 15:59 | 45.60765 | 8.48057 | 13132 ft | 323 kts | 204° |
| 2026-05-05 15:59 | 45.58683 | 8.46842 | 13984 ft | 323 kts | 204° |
| 2026-05-05 16:00 | 45.56600 | 8.45625 | 14706 ft | 324 kts | 204° |
| 2026-05-05 16:00 | 45.54504 | 8.44422 | 15387 ft | 326 kts | 203° |
| 2026-05-05 16:00 | 45.52369 | 8.43301 | 16048 ft | 328 kts | 201° |
| 2026-05-05 16:00 | 45.50207 | 8.42230 | 16728 ft | 330 kts | 201° |
| 2026-05-05 16:01 | 45.48026 | 8.41178 | 17401 ft | 332 kts | 201° |
| 2026-05-05 16:01 | 45.45832 | 8.40124 | 18054 ft | 334 kts | 201° |
| 2026-05-05 16:01 | 45.43628 | 8.39055 | 18642 ft | 336 kts | 201° |
| 2026-05-05 16:01 | 45.41410 | 8.37969 | 18913 ft | 337 kts | 201° |
| 2026-05-05 16:02 | 45.39223 | 8.36894 | 18991 ft | 338 kts | 201° |
| 2026-05-05 16:02 | 45.36991 | 8.35791 | 19506 ft | 341 kts | 202° |
| 2026-05-05 16:02 | 45.34746 | 8.34684 | 20090 ft | 342 kts | 202° |
| 2026-05-05 16:02 | 45.32484 | 8.33570 | 20658 ft | 345 kts | 202° |
| 2026-05-05 16:03 | 45.30212 | 8.32449 | 21210 ft | 347 kts | 202° |
| 2026-05-05 16:03 | 45.27923 | 8.31317 | 21793 ft | 350 kts | 202° |
| 2026-05-05 16:03 | 45.25616 | 8.30175 | 22371 ft | 352 kts | 202° |
| 2026-05-05 16:03 | 45.23291 | 8.29028 | 22954 ft | 355 kts | 202° |
| 2026-05-05 16:04 | 45.20952 | 8.27880 | 23519 ft | 357 kts | 202° |
| 2026-05-05 16:04 | 45.18622 | 8.26740 | 23984 ft | 360 kts | 202° |
| 2026-05-05 16:04 | 45.16251 | 8.25584 | 24434 ft | 361 kts | 202° |
| 2026-05-05 16:04 | 45.13868 | 8.24422 | 24890 ft | 363 kts | 203° |
| 2026-05-05 16:05 | 45.11473 | 8.23269 | 25334 ft | 366 kts | 200° |
| 2026-05-05 16:05 | 45.08959 | 8.22532 | 25755 ft | 372 kts | 194° |
| 2026-05-05 16:05 | 45.06397 | 8.21979 | 26167 ft | 373 kts | 193° |
| 2026-05-05 16:05 | 45.03824 | 8.21430 | 26590 ft | 375 kts | 193° |
| 2026-05-05 16:06 | 45.01236 | 8.20880 | 27008 ft | 377 kts | 193° |
| 2026-05-05 16:06 | 44.98638 | 8.20325 | 27414 ft | 379 kts | 194° |
| 2026-05-05 16:06 | 44.96024 | 8.19763 | 27812 ft | 381 kts | 194° |
| 2026-05-05 16:06 | 44.93436 | 8.19207 | 28212 ft | 382 kts | 194° |
| 2026-05-05 16:07 | 44.90797 | 8.18639 | 28640 ft | 384 kts | 194° |
| 2026-05-05 16:07 | 44.88145 | 8.18068 | 28919 ft | 386 kts | 194° |
| 2026-05-05 16:07 | 44.85495 | 8.17498 | 28967 ft | 385 kts | 194° |
| 2026-05-05 16:08 | 44.80205 | 8.16368 | 28968 ft | 384 kts | 194° |
| 2026-05-05 16:08 | 44.74921 | 8.15230 | 28971 ft | 384 kts | 194° |
| 2026-05-05 16:09 | 44.69739 | 8.13801 | 28955 ft | 378 kts | 204° |
| 2026-05-05 16:09 | 44.65172 | 8.10439 | 28972 ft | 369 kts | 215° |
| 2026-05-05 16:10 | 44.60792 | 8.06660 | 28966 ft | 370 kts | 214° |
| 2026-05-05 16:10 | 44.56404 | 8.02908 | 28972 ft | 369 kts | 214° |
| 2026-05-05 16:11 | 44.52073 | 7.99210 | 29000 ft | 365 kts | 214° |
| 2026-05-05 16:12 | 44.43478 | 7.91868 | 28975 ft | 359 kts | 214° |
| 2026-05-05 16:13 | 44.32820 | 7.82791 | 28955 ft | 361 kts | 214° |
| 2026-05-05 16:13 | 44.28530 | 7.79159 | 28963 ft | 360 kts | 214° |
| 2026-05-05 16:14 | 44.20910 | 7.70328 | 28968 ft | 357 kts | 223° |
| 2026-05-05 16:15 | 44.13633 | 7.61051 | 28969 ft | 354 kts | 230° |
| 2026-05-05 16:16 | 44.07267 | 7.50857 | 28957 ft | 345 kts | 230° |
| 2026-05-05 16:17 | 44.02549 | 7.43321 | 28954 ft | 347 kts | 230° |
| 2026-05-05 16:18 | 43.97787 | 7.35752 | 28944 ft | 347 kts | 230° |
| 2026-05-05 16:19 | 43.93023 | 7.28180 | 28950 ft | 347 kts | 230° |
| 2026-05-05 16:19 | 43.88278 | 7.20658 | 28948 ft | 347 kts | 230° |
| 2026-05-05 16:20 | 43.81910 | 7.10611 | 28952 ft | 346 kts | 230° |
| 2026-05-05 16:22 | 43.73958 | 6.98108 | 28951 ft | 348 kts | 230° |
| 2026-05-05 16:22 | 43.71364 | 6.92528 | 28947 ft | 347 kts | 246° |
| 2026-05-05 16:23 | 43.69568 | 6.86372 | 28951 ft | 348 kts | 246° |
| 2026-05-05 16:23 | 43.66830 | 6.77091 | 28964 ft | 347 kts | 245° |
| 2026-05-05 16:24 | 43.65003 | 6.70919 | 28961 ft | 347 kts | 245° |
| 2026-05-05 16:25 | 43.62268 | 6.61688 | 28929 ft | 346 kts | 245° |
| 2026-05-05 16:25 | 43.59534 | 6.52505 | 28930 ft | 347 kts | 245° |
| 2026-05-05 16:26 | 43.55866 | 6.40226 | 28949 ft | 346 kts | 245° |
| 2026-05-05 16:27 | 43.54038 | 6.34143 | 28941 ft | 346 kts | 245° |
| 2026-05-05 16:27 | 43.52200 | 6.28025 | 28939 ft | 346 kts | 245° |
| 2026-05-05 16:28 | 43.50355 | 6.21905 | 28930 ft | 346 kts | 245° |
| 2026-05-05 16:28 | 43.48505 | 6.15794 | 28933 ft | 346 kts | 245° |
| 2026-05-05 16:29 | 43.46665 | 6.09728 | 28898 ft | 346 kts | 245° |
| 2026-05-05 16:29 | 43.44822 | 6.03624 | 28944 ft | 345 kts | 245° |
| 2026-05-05 16:30 | 43.42975 | 5.97534 | 28942 ft | 344 kts | 244° |
| 2026-05-05 16:30 | 43.41124 | 5.91461 | 28933 ft | 344 kts | 244° |
| 2026-05-05 16:31 | 43.39281 | 5.85445 | 28925 ft | 344 kts | 244° |
| 2026-05-05 16:31 | 43.37423 | 5.79390 | 28922 ft | 344 kts | 244° |
| 2026-05-05 16:32 | 43.35561 | 5.73341 | 28921 ft | 344 kts | 244° |
| 2026-05-05 16:32 | 43.33705 | 5.67299 | 28948 ft | 344 kts | 244° |
| 2026-05-05 16:33 | 43.31849 | 5.61283 | 28941 ft | 344 kts | 244° |
| 2026-05-05 16:33 | 43.29982 | 5.55229 | 28938 ft | 344 kts | 244° |
| 2026-05-05 16:34 | 43.28110 | 5.49184 | 28928 ft | 344 kts | 244° |
| 2026-05-05 16:34 | 43.26236 | 5.43166 | 28934 ft | 343 kts | 244° |
| 2026-05-05 16:35 | 43.24374 | 5.37183 | 28943 ft | 343 kts | 244° |
| 2026-05-05 16:35 | 43.22505 | 5.31177 | 28946 ft | 342 kts | 244° |
| 2026-05-05 16:36 | 43.20633 | 5.25181 | 28932 ft | 342 kts | 244° |
| 2026-05-05 16:36 | 43.18753 | 5.19199 | 28926 ft | 342 kts | 244° |
| 2026-05-05 16:37 | 43.16865 | 5.13215 | 28921 ft | 342 kts | 244° |
| 2026-05-05 16:37 | 43.14995 | 5.07264 | 28919 ft | 343 kts | 244° |
| 2026-05-05 16:38 | 43.13107 | 5.01272 | 28916 ft | 343 kts | 244° |
| 2026-05-05 16:38 | 43.11212 | 4.95292 | 28945 ft | 342 kts | 243° |
| 2026-05-05 16:39 | 43.09314 | 4.89314 | 28938 ft | 342 kts | 243° |
| 2026-05-05 16:39 | 43.07429 | 4.83382 | 28926 ft | 342 kts | 243° |
| 2026-05-05 16:40 | 43.05253 | 4.77637 | 28922 ft | 339 kts | 232° |
| 2026-05-05 16:40 | 43.01870 | 4.73145 | 28919 ft | 340 kts | 223° |
| 2026-05-05 16:41 | 42.98322 | 4.68868 | 28916 ft | 340 kts | 223° |
| 2026-05-05 16:41 | 42.94782 | 4.64579 | 28916 ft | 340 kts | 223° |
| 2026-05-05 16:42 | 42.91255 | 4.60330 | 28919 ft | 340 kts | 223° |
| 2026-05-05 16:42 | 42.87701 | 4.56059 | 28930 ft | 341 kts | 223° |
| 2026-05-05 16:43 | 42.84141 | 4.51776 | 28906 ft | 342 kts | 223° |
| 2026-05-05 16:43 | 42.80567 | 4.47490 | 28901 ft | 343 kts | 223° |
| 2026-05-05 16:44 | 42.76978 | 4.43195 | 28903 ft | 344 kts | 223° |
| 2026-05-05 16:44 | 42.73411 | 4.38922 | 28901 ft | 344 kts | 223° |
| 2026-05-05 16:45 | 42.69813 | 4.34618 | 28909 ft | 345 kts | 223° |
| 2026-05-05 16:45 | 42.66203 | 4.30317 | 28917 ft | 346 kts | 223° |
| 2026-05-05 16:46 | 42.62588 | 4.26019 | 28914 ft | 345 kts | 223° |
| 2026-05-05 16:46 | 42.59008 | 4.21768 | 28911 ft | 344 kts | 223° |
| 2026-05-05 16:47 | 42.55398 | 4.17476 | 28917 ft | 346 kts | 222° |
| 2026-05-05 16:47 | 42.51764 | 4.13164 | 28890 ft | 347 kts | 223° |
| 2026-05-05 16:48 | 42.48132 | 4.08864 | 28913 ft | 346 kts | 223° |
| 2026-05-05 16:48 | 42.44534 | 4.04615 | 28917 ft | 345 kts | 223° |
| 2026-05-05 16:49 | 42.40917 | 4.00353 | 28914 ft | 344 kts | 223° |
| 2026-05-05 16:49 | 42.37302 | 3.96100 | 28914 ft | 344 kts | 223° |
| 2026-05-05 16:50 | 42.33693 | 3.91854 | 28867 ft | 344 kts | 223° |
| 2026-05-05 16:50 | 42.30110 | 3.87655 | 28902 ft | 343 kts | 223° |
| 2026-05-05 16:51 | 42.26519 | 3.83446 | 28915 ft | 341 kts | 223° |
| 2026-05-05 16:51 | 42.22859 | 3.79145 | 28912 ft | 359 kts | 223° |
| 2026-05-05 16:52 | 42.21000 | 3.76967 | 28196 ft | 349 kts | 223° |
| 2026-05-05 16:52 | 42.19176 | 3.74841 | 26926 ft | 345 kts | 222° |
| 2026-05-05 16:52 | 42.17396 | 3.72771 | 26373 ft | 327 kts | 222° |
| 2026-05-05 16:52 | 42.15709 | 3.70811 | 26260 ft | 316 kts | 222° |
| 2026-05-05 16:53 | 42.14081 | 3.68919 | 25976 ft | 310 kts | 222° |
| 2026-05-05 16:53 | 42.12459 | 3.67037 | 25650 ft | 305 kts | 222° |
| 2026-05-05 16:53 | 42.10868 | 3.65188 | 25334 ft | 300 kts | 222° |
| 2026-05-05 16:53 | 42.09299 | 3.63365 | 25018 ft | 295 kts | 222° |
| 2026-05-05 16:54 | 42.07834 | 3.61472 | 24726 ft | 290 kts | 227° |
| 2026-05-05 16:54 | 42.06405 | 3.59460 | 24437 ft | 307 kts | 227° |
| 2026-05-05 16:54 | 42.04908 | 3.57354 | 24116 ft | 314 kts | 227° |
| 2026-05-05 16:54 | 42.03393 | 3.55231 | 23799 ft | 315 kts | 227° |
| 2026-05-05 16:55 | 42.01871 | 3.53104 | 23480 ft | 315 kts | 226° |
| 2026-05-05 16:55 | 42.00369 | 3.51012 | 23126 ft | 315 kts | 226° |
| 2026-05-05 16:55 | 41.98848 | 3.48898 | 22811 ft | 315 kts | 226° |
| 2026-05-05 16:55 | 41.97327 | 3.46785 | 22497 ft | 314 kts | 226° |
| 2026-05-05 16:56 | 41.95811 | 3.44681 | 22183 ft | 313 kts | 226° |
| 2026-05-05 16:56 | 41.94302 | 3.42585 | 21871 ft | 312 kts | 226° |
| 2026-05-05 16:56 | 41.92799 | 3.40498 | 21535 ft | 309 kts | 226° |
| 2026-05-05 16:56 | 41.91312 | 3.38437 | 21241 ft | 306 kts | 226° |
| 2026-05-05 16:57 | 41.89833 | 3.36386 | 20943 ft | 305 kts | 227° |
| 2026-05-05 16:57 | 41.88361 | 3.34344 | 20651 ft | 304 kts | 227° |
| 2026-05-05 16:57 | 41.86890 | 3.32305 | 20331 ft | 304 kts | 227° |
| 2026-05-05 16:57 | 41.85441 | 3.30297 | 20031 ft | 303 kts | 227° |
| 2026-05-05 16:58 | 41.83977 | 3.28269 | 19726 ft | 303 kts | 226° |
| 2026-05-05 16:58 | 41.82514 | 3.26243 | 19418 ft | 302 kts | 226° |
| 2026-05-05 16:58 | 41.81055 | 3.24223 | 19122 ft | 301 kts | 226° |
| 2026-05-05 16:58 | 41.79597 | 3.22205 | 18810 ft | 301 kts | 226° |
| 2026-05-05 16:59 | 41.78140 | 3.20195 | 18524 ft | 301 kts | 226° |
| 2026-05-05 16:59 | 41.76684 | 3.18190 | 18223 ft | 300 kts | 226° |
| 2026-05-05 16:59 | 41.75227 | 3.16187 | 17892 ft | 300 kts | 226° |
| 2026-05-05 16:59 | 41.73776 | 3.14188 | 17589 ft | 299 kts | 226° |
| 2026-05-05 17:00 | 41.72328 | 3.12193 | 17286 ft | 298 kts | 226° |
| 2026-05-05 17:00 | 41.70888 | 3.10213 | 16995 ft | 296 kts | 226° |
| 2026-05-05 17:00 | 41.69937 | 3.08909 | 16805 ft | 295 kts | 226° |
| 2026-05-05 17:00 | 41.68043 | 3.06309 | 16417 ft | 294 kts | 226° |
| 2026-05-05 17:01 | 41.66620 | 3.04355 | 16133 ft | 294 kts | 226° |
| 2026-05-05 17:01 | 41.65051 | 3.02607 | 15903 ft | 295 kts | 214° |
| 2026-05-05 17:01 | 41.63216 | 3.01350 | 15878 ft | 298 kts | 207° |
| 2026-05-05 17:01 | 41.61334 | 3.00187 | 15884 ft | 299 kts | 207° |
| 2026-05-05 17:02 | 41.59448 | 2.99018 | 15886 ft | 299 kts | 207° |
| 2026-05-05 17:02 | 41.58206 | 2.98247 | 15888 ft | 299 kts | 207° |
| 2026-05-05 17:02 | 41.55701 | 2.96694 | 15884 ft | 299 kts | 207° |
| 2026-05-05 17:02 | 41.53815 | 2.95527 | 15882 ft | 299 kts | 207° |
| 2026-05-05 17:03 | 41.51933 | 2.94363 | 15320 ft | 295 kts | 207° |
| 2026-05-05 17:03 | 41.50077 | 2.93218 | 14378 ft | 293 kts | 207° |
| 2026-05-05 17:03 | 41.48234 | 2.92080 | 13442 ft | 291 kts | 206° |
| 2026-05-05 17:03 | 41.46408 | 2.90954 | 12468 ft | 288 kts | 206° |
| 2026-05-05 17:04 | 41.45207 | 2.90212 | 11850 ft | 287 kts | 206° |
| 2026-05-05 17:04 | 41.43402 | 2.89097 | 11087 ft | 285 kts | 206° |
| 2026-05-05 17:04 | 41.41636 | 2.88011 | 10578 ft | 275 kts | 206° |
| 2026-05-05 17:04 | 41.40026 | 2.86688 | 10276 ft | 270 kts | 220° |
| 2026-05-05 17:05 | 41.38299 | 2.84360 | 9715 ft | 262 kts | 226° |
| 2026-05-05 17:05 | 41.37064 | 2.82606 | 9649 ft | 262 kts | 226° |
| 2026-05-05 17:05 | 41.36217 | 2.81406 | 9581 ft | 263 kts | 226° |
| 2026-05-05 17:05 | 41.34965 | 2.79631 | 9488 ft | 263 kts | 226° |
| 2026-05-05 17:06 | 41.33729 | 2.77883 | 9394 ft | 263 kts | 226° |
| 2026-05-05 17:06 | 41.32476 | 2.76114 | 9299 ft | 263 kts | 226° |
| 2026-05-05 17:06 | 41.31222 | 2.74343 | 9204 ft | 263 kts | 226° |
| 2026-05-05 17:06 | 41.29967 | 2.72576 | 9117 ft | 263 kts | 226° |
| 2026-05-05 17:07 | 41.28710 | 2.70803 | 9026 ft | 263 kts | 226° |
| 2026-05-05 17:07 | 41.27454 | 2.69032 | 8934 ft | 263 kts | 226° |
| 2026-05-05 17:07 | 41.26303 | 2.67142 | 8832 ft | 264 kts | 239° |
| 2026-05-05 17:07 | 41.25725 | 2.64842 | 8707 ft | 265 kts | 263° |
| 2026-05-05 17:08 | 41.25920 | 2.62441 | 8581 ft | 270 kts | 287° |
| 2026-05-05 17:08 | 41.26925 | 2.60324 | 8459 ft | 276 kts | 313° |
| 2026-05-05 17:08 | 41.28571 | 2.58991 | 8331 ft | 283 kts | 339° |
| 2026-05-05 17:08 | 41.30552 | 2.58798 | 8200 ft | 293 kts | 7° |
| 2026-05-05 17:09 | 41.32550 | 2.59424 | 8075 ft | 296 kts | 12° |
| 2026-05-05 17:09 | 41.34542 | 2.60091 | 7949 ft | 295 kts | 12° |
| 2026-05-05 17:09 | 41.36528 | 2.60755 | 7823 ft | 294 kts | 12° |
| 2026-05-05 17:09 | 41.38489 | 2.61405 | 7690 ft | 285 kts | 11° |
| 2026-05-05 17:10 | 41.40358 | 2.62023 | 7566 ft | 276 kts | 11° |
| 2026-05-05 17:10 | 41.42188 | 2.62623 | 7439 ft | 266 kts | 11° |
| 2026-05-05 17:10 | 41.43970 | 2.62872 | 7310 ft | 250 kts | 346° |
| 2026-05-05 17:10 | 41.45496 | 2.61995 | 7180 ft | 236 kts | 315° |
| 2026-05-05 17:11 | 41.46455 | 2.60213 | 7069 ft | 244 kts | 285° |
| 2026-05-05 17:11 | 41.46580 | 2.57924 | 6968 ft | 256 kts | 256° |
| 2026-05-05 17:11 | 41.45960 | 2.55684 | 6839 ft | 260 kts | 244° |
| 2026-05-05 17:11 | 41.45483 | 2.54309 | 6751 ft | 260 kts | 244° |
| 2026-05-05 17:16 | 41.44734 | 2.52112 | 6656 ft | 264 kts | 246° |
| 2026-05-05 17:16 | 41.44641 | 2.51837 | 6595 ft | 265 kts | 246° |
| 2026-05-05 17:19 | 41.44421 | 2.51180 | 6498 ft | 264 kts | 243° |
| 2026-05-05 17:20 | 41.44264 | 2.50719 | 6447 ft | 263 kts | 243° |
| 2026-05-05 17:25 | 41.43649 | 2.48875 | 6186 ft | 260 kts | 248° |
| 2026-05-05 17:26 | 41.42908 | 2.46687 | 5835 ft | 258 kts | 247° |
| 2026-05-05 17:26 | 41.42178 | 2.44514 | 5490 ft | 256 kts | 246° |
| 2026-05-05 17:26 | 41.41445 | 2.42352 | 5155 ft | 256 kts | 246° |
| 2026-05-05 17:26 | 41.40716 | 2.40201 | 4824 ft | 254 kts | 246° |
| 2026-05-05 17:27 | 41.39991 | 2.38063 | 4477 ft | 251 kts | 246° |